Time;durP1;ratioP1;P1;durP2;ratioP2;P2;SDS_P1;SDS_P2;PMS_P1;PMS_P2;Temp;Humidity;BMP_temperature;BMP_pressure;BME280_temperature;BME280_humidity;BME280_pressure;Samples;Min_cycle;Max_cycle;Signal;HPM_P1;HPM_P2
2023/07/26 00:01:21;;;;;;;8.20;2.95;;;14.50;99.90;;;13.84;100.00;101201.25;3995452;29;20079;-82
2023/07/26 00:03:21;;;;;;;11.10;3.63;;;14.50;99.90;;;13.90;100.00;101213.03;3967997;29;20032;-82
2023/07/26 00:05:22;;;;;;;9.10;3.20;;;14.50;99.90;;;13.87;100.00;101192.13;3996529;29;20084;-82
2023/07/26 00:07:23;;;;;;;9.43;3.88;;;14.50;99.90;;;13.87;100.00;101200.09;3996644;29;20746;-82
2023/07/26 00:09:24;;;;;;;8.13;3.35;;;14.50;99.90;;;13.92;100.00;101204.91;3980410;29;20030;-82
2023/07/26 00:11:25;;;;;;;6.70;3.00;;;14.50;99.90;;;13.89;100.00;101195.44;3996715;29;20395;-82
2023/07/26 00:13:26;;;;;;;7.00;3.47;;;14.50;99.90;;;13.88;100.00;101204.41;3980356;29;20072;-83
2023/07/26 00:15:27;;;;;;;5.40;3.08;;;14.50;99.90;;;13.86;100.00;101198.44;3980647;29;20034;-82
2023/07/26 00:17:28;;;;;;;9.93;3.17;;;14.40;99.90;;;13.85;100.00;101204.75;3995299;29;20037;-82
2023/07/26 00:19:28;;;;;;;8.13;3.67;;;14.40;99.90;;;13.82;100.00;101208.56;3964869;30;20023;-82
2023/07/26 00:21:29;;;;;;;10.43;3.42;;;14.40;99.90;;;13.81;100.00;101214.00;3995399;29;20038;-82
2023/07/26 00:23:30;;;;;;;8.10;3.28;;;14.40;99.90;;;13.80;100.00;101215.81;3974427;29;20474;-82
2023/07/26 00:25:31;;;;;;;5.70;3.15;;;14.40;99.90;;;13.77;100.00;101217.97;3996376;29;20037;-82
2023/07/26 00:27:34;;;;;;;7.38;3.60;;;14.30;99.90;;;13.73;100.00;101208.72;3996355;29;20037;-82
2023/07/26 00:29:34;;;;;;;8.48;3.35;;;14.30;99.90;;;13.67;100.00;101206.72;3980355;29;20079;-82
2023/07/26 00:31:35;;;;;;;12.45;3.83;;;14.30;99.90;;;13.71;100.00;101218.63;3996383;29;20503;-82
2023/07/26 00:33:36;;;;;;;7.35;3.28;;;14.30;99.90;;;13.68;100.00;101216.31;3976819;29;20046;-82
2023/07/26 00:35:41;;;;;;;6.05;2.97;;;14.30;99.90;;;13.68;100.00;101213.66;3979850;29;20030;-82
2023/07/26 00:37:42;;;;;;;6.15;3.72;;;14.20;99.90;;;13.64;100.00;101212.34;3980039;29;20481;-82
2023/07/26 00:39:43;;;;;;;10.07;3.45;;;14.20;99.90;;;13.66;100.00;101226.25;3996297;29;20060;-82
2023/07/26 00:41:44;;;;;;;7.50;3.83;;;14.20;99.90;;;13.59;100.00;101220.78;3996246;29;20519;-82
2023/07/26 00:43:45;;;;;;;8.32;2.88;;;14.20;99.90;;;13.57;100.00;101219.28;3975686;29;20069;-82
2023/07/26 00:45:46;;;;;;;9.07;4.10;;;14.10;99.90;;;13.54;100.00;101212.50;3996015;29;20064;-82
2023/07/26 00:47:47;;;;;;;12.02;3.67;;;14.10;99.90;;;13.52;100.00;101218.97;3964890;30;20488;-82
2023/07/26 00:49:48;;;;;;;7.70;2.95;;;14.10;99.90;;;13.50;100.00;101216.47;3986933;29;20046;-82
2023/07/26 00:51:49;;;;;;;6.25;3.42;;;14.10;99.90;;;13.50;100.00;101218.31;3992107;29;20045;-82
2023/07/26 00:53:50;;;;;;;11.32;3.88;;;14.00;99.90;;;13.42;100.00;101199.72;3978565;29;20487;-82
2023/07/26 00:55:51;;;;;;;6.40;3.38;;;14.00;99.90;;;13.44;100.00;101203.06;3970681;29;20522;-82
2023/07/26 00:57:53;;;;;;;8.00;3.25;;;14.00;99.90;;;13.39;100.00;101203.53;3990438;29;20206;-82
2023/07/26 00:59:54;;;;;;;6.35;3.30;;;14.00;99.90;;;13.37;100.00;101202.88;3979679;29;20019;-82
2023/07/26 01:01:55;;;;;;;5.13;3.00;;;13.90;99.90;;;13.33;100.00;101204.19;3995815;29;20480;-81
2023/07/26 01:03:56;;;;;;;10.32;3.13;;;13.90;99.90;;;13.29;100.00;101203.66;3990263;29;20038;-82
2023/07/26 01:06:09;;;;;;;7.32;3.08;;;13.90;99.90;;;13.25;100.00;101189.09;3996016;29;20079;-82
2023/07/26 01:08:20;;;;;;;9.30;4.78;;;13.80;99.90;;;13.22;100.00;101184.13;3991877;29;20068;-82
2023/07/26 01:10:31;;;;;;;8.63;3.85;;;13.80;99.90;;;13.27;100.00;101191.56;3979816;29;20107;-83
2023/07/26 01:12:41;;;;;;;7.35;3.65;;;13.80;99.90;;;13.27;100.00;101181.81;3975927;29;20023;-83
2023/07/26 01:14:57;;;;;;;5.68;3.70;;;13.90;99.90;;;13.32;100.00;101185.81;3985435;29;20034;-82
2023/07/26 01:16:58;;;;;;;5.85;3.55;;;13.90;99.90;;;13.25;100.00;101181.16;3992219;29;20414;-82
2023/07/26 01:18:59;;;;;;;6.70;3.05;;;13.90;99.90;;;13.27;100.00;101188.94;3979200;29;20027;-82
2023/07/26 01:21:00;;;;;;;8.00;3.28;;;13.90;99.90;;;13.30;100.00;101188.59;3979572;29;20031;-82
2023/07/26 01:23:01;;;;;;;9.02;4.15;;;13.90;99.90;;;13.24;100.00;101184.78;3979218;29;20035;-82
2023/07/26 01:25:02;;;;;;;9.82;3.78;;;13.80;99.90;;;13.21;100.00;101184.28;3992947;29;20495;-82
2023/07/26 01:27:03;;;;;;;6.57;3.13;;;13.80;99.90;;;13.18;100.00;101180.13;3988175;29;20034;-82
2023/07/26 01:29:04;;;;;;;11.80;3.75;;;13.80;99.90;;;13.16;100.00;101183.94;3979342;29;20031;-82
2023/07/26 01:31:06;;;;;;;7.95;3.45;;;13.70;99.90;;;13.12;100.00;101186.09;3995605;29;20076;-82
2023/07/26 01:33:09;;;;;;;7.25;2.97;;;13.70;99.90;;;13.10;100.00;101181.94;3979556;29;20043;-82
2023/07/26 01:35:10;;;;;;;4.80;3.28;;;13.70;99.90;;;13.02;100.00;101180.06;3979417;29;20029;-82
2023/07/26 01:37:12;;;;;;;6.40;2.75;;;13.70;99.90;;;13.05;100.00;101179.72;3979424;29;20035;-82
2023/07/26 01:39:13;;;;;;;6.88;3.30;;;13.70;99.90;;;13.10;100.00;101184.59;3993729;29;20050;-82
2023/07/26 01:41:16;;;;;;;7.93;3.40;;;13.70;99.90;;;13.14;100.00;101185.94;3979586;29;20031;-82
2023/07/26 01:43:17;;;;;;;6.57;3.22;;;13.80;99.90;;;13.22;100.00;101184.13;3978908;29;20102;-82
2023/07/26 01:45:18;;;;;;;9.57;3.53;;;13.80;99.90;;;13.37;100.00;101189.63;3979293;29;20080;-82
2023/07/26 01:47:19;;;;;;;5.70;3.20;;;14.00;99.90;;;13.48;100.00;101193.75;3979113;29;20031;-82
2023/07/26 01:49:21;;;;;;;5.75;3.33;;;14.00;99.90;;;13.54;100.00;101175.41;3979073;29;20030;-82
2023/07/26 01:51:22;;;;;;;5.43;2.67;;;14.10;99.90;;;13.68;100.00;101173.91;3979482;29;20111;-82
2023/07/26 01:53:23;;;;;;;6.15;3.25;;;14.20;99.90;;;13.74;100.00;101168.75;3995500;29;20073;-82
2023/07/26 01:55:24;;;;;;;8.20;3.38;;;14.30;99.90;;;13.83;100.00;101169.59;3979218;29;20027;-82
2023/07/26 01:57:25;;;;;;;7.95;3.75;;;14.40;99.90;;;13.86;100.00;101174.56;3979020;29;20042;-82
2023/07/26 01:59:26;;;;;;;6.68;3.17;;;14.50;99.90;;;13.87;100.00;101165.63;3994956;29;20019;-82
2023/07/26 02:01:26;;;;;;;7.32;3.35;;;14.50;99.90;;;13.94;100.00;101168.44;3979203;29;20385;-82
2023/07/26 02:03:27;;;;;;;8.30;3.15;;;14.50;99.90;;;13.94;100.00;101171.91;3995330;29;20065;-82
2023/07/26 02:05:28;;;;;;;3.63;2.88;;;14.50;99.90;;;13.93;100.00;101170.25;3995249;29;20034;-82
2023/07/26 02:07:29;;;;;;;3.33;2.75;;;14.50;99.90;;;13.91;100.00;101166.13;3995372;29;20076;-82
2023/07/26 02:09:30;;;;;;;8.32;3.15;;;14.50;99.90;;;13.92;100.00;101163.28;3991533;29;20491;-82
2023/07/26 02:11:31;;;;;;;3.45;2.58;;;14.50;99.90;;;13.98;100.00;101165.25;3978854;29;20023;-82
2023/07/26 02:13:32;;;;;;;5.60;2.50;;;14.50;99.90;;;13.96;100.00;101158.47;3995242;29;20031;-82
2023/07/26 02:15:33;;;;;;;6.68;2.85;;;14.60;99.90;;;14.03;100.00;101165.63;3978984;29;20029;-82
2023/07/26 02:17:34;;;;;;;4.55;2.78;;;14.60;99.90;;;14.04;100.00;101161.94;3995343;29;20037;-82
2023/07/26 02:19:35;;;;;;;5.18;3.05;;;14.60;99.90;;;14.10;100.00;101158.63;3995072;29;20112;-82
2023/07/26 02:21:36;;;;;;;3.63;2.67;;;14.70;99.90;;;14.08;100.00;101149.19;3995254;29;20035;-82
2023/07/26 02:23:37;;;;;;;6.85;2.80;;;14.70;99.90;;;14.10;100.00;101161.28;3978939;29;20047;-82
2023/07/26 02:25:38;;;;;;;6.60;3.08;;;14.70;99.90;;;14.10;100.00;101153.31;3995279;29;20034;-82
2023/07/26 02:27:39;;;;;;;5.35;3.28;;;14.70;99.90;;;14.13;100.00;101150.31;3991023;29;20015;-82
2023/07/26 02:29:40;;;;;;;6.10;3.10;;;14.80;99.90;;;14.17;100.00;101149.00;3978997;29;20034;-83
2023/07/26 02:31:41;;;;;;;7.63;2.88;;;14.80;99.90;;;14.20;100.00;101151.31;3974466;29;20026;-82
2023/07/26 02:33:42;;;;;;;5.72;2.72;;;14.80;99.90;;;14.22;100.00;101146.66;3973290;29;20035;-82
2023/07/26 02:35:42;;;;;;;5.63;2.97;;;14.80;99.90;;;14.23;100.00;101139.53;3987059;29;20030;-82
2023/07/26 02:37:43;;;;;;;6.35;3.00;;;14.80;99.90;;;14.26;100.00;101134.72;3986776;29;20400;-82
2023/07/26 02:39:44;;;;;;;6.15;3.33;;;14.80;99.90;;;14.26;100.00;101137.38;3989590;29;20030;-82
2023/07/26 02:41:45;;;;;;;8.88;2.63;;;14.90;99.90;;;14.28;100.00;101143.31;3976052;29;20031;-82
2023/07/26 02:43:46;;;;;;;5.13;2.20;;;14.90;99.90;;;14.23;100.00;101129.75;3990449;29;20019;-82
2023/07/26 02:45:47;;;;;;;5.00;2.58;;;14.90;99.90;;;14.27;100.00;101130.25;3993513;29;20038;-82
2023/07/26 02:47:48;;;;;;;3.63;2.45;;;14.90;99.90;;;14.28;100.00;101135.34;3966359;29;20392;-82
2023/07/26 02:49:49;;;;;;;7.65;2.58;;;14.90;99.90;;;14.28;100.00;101138.00;3974492;29;20039;-82
2023/07/26 02:51:50;;;;;;;5.45;2.50;;;14.90;99.90;;;14.29;100.00;101133.53;3990191;29;20033;-82
2023/07/26 02:53:50;;;;;;;4.30;2.28;;;14.90;99.90;;;14.28;100.00;101130.06;3970617;29;20040;-82
2023/07/26 02:55:51;;;;;;;4.40;2.25;;;14.90;99.90;;;14.27;100.00;101124.94;3973964;29;20038;-82
2023/07/26 02:57:52;;;;;;;7.70;2.65;;;14.80;99.90;;;14.25;100.00;101125.09;3993343;29;20034;-82
2023/07/26 02:59:53;;;;;;;5.80;2.60;;;14.80;99.90;;;14.25;100.00;101133.03;3974638;29;20027;-82
2023/07/26 03:01:54;;;;;;;5.25;2.90;;;14.80;99.90;;;14.28;100.00;101126.56;3975150;29;20027;-82
2023/07/26 03:03:55;;;;;;;4.85;2.55;;;14.80;99.90;;;14.29;100.00;101133.53;3975985;29;20029;-82
2023/07/26 03:05:59;;;;;;;3.35;2.40;;;14.90;99.90;;;14.30;100.00;101130.72;3990179;29;20484;-82
2023/07/26 03:07:59;;;;;;;;;;;14.90;99.90;;;14.24;100.00;101119.97;3993540;29;20038;-82
2023/07/26 03:10:00;;;;;;;4.75;2.60;;;14.90;99.90;;;14.27;100.00;101119.63;3991987;29;19913;-82
2023/07/26 03:12:01;;;;;;;6.07;2.70;;;14.90;99.90;;;14.26;100.00;101118.78;3991209;29;20176;-82
2023/07/26 03:14:02;;;;;;;6.43;2.50;;;14.90;99.90;;;14.31;100.00;101120.91;3975397;29;20030;-82
2023/07/26 03:16:03;;;;;;;5.18;2.97;;;14.90;99.90;;;14.34;100.00;101123.25;3963927;30;20158;-82
2023/07/26 03:18:04;;;;;;;6.90;3.75;;;14.90;99.90;;;14.34;100.00;101113.47;3986918;29;20035;-82
2023/07/26 03:20:06;;;;;;;9.27;2.97;;;14.90;99.90;;;14.36;100.00;101118.63;3965681;30;20135;-82
2023/07/26 03:22:07;;;;;;;6.07;2.20;;;15.00;99.90;;;14.36;100.00;101114.16;3990427;29;20027;-82
2023/07/26 03:24:08;;;;;;;5.90;2.83;;;15.00;99.90;;;14.36;100.00;101111.50;3973618;29;20043;-82
2023/07/26 03:26:09;;;;;;;4.88;2.85;;;15.00;99.90;;;14.40;100.00;101118.09;3975106;29;20023;-82
2023/07/26 03:28:10;;;;;;;7.65;3.42;;;15.00;99.90;;;14.39;100.00;101115.63;3980816;29;20473;-82
2023/07/26 03:30:11;;;;;;;5.18;2.85;;;15.00;99.90;;;14.41;100.00;101126.91;3990518;29;20038;-82
2023/07/26 03:32:12;;;;;;;4.43;2.95;;;15.00;99.90;;;14.37;100.00;101121.09;3990273;29;20117;-82
2023/07/26 03:34:13;;;;;;;4.18;2.13;;;15.00;99.90;;;14.39;100.00;101123.59;3991171;29;20027;-82
2023/07/26 03:36:14;;;;;;;4.63;2.40;;;15.00;99.90;;;14.39;100.00;101112.97;3980717;29;20039;-82
2023/07/26 03:38:15;;;;;;;4.45;2.65;;;15.00;99.90;;;14.44;100.00;101128.38;3975938;29;20027;-82
2023/07/26 03:40:16;;;;;;;5.80;2.85;;;15.00;99.90;;;14.43;100.00;101124.06;3990043;29;20027;-82
2023/07/26 03:42:17;;;;;;;3.80;2.30;;;15.00;99.90;;;14.38;100.00;101120.13;3987850;29;20148;-82
2023/07/26 03:44:18;;;;;;;4.50;2.80;;;15.00;99.90;;;14.39;100.00;101123.59;3992373;29;20038;-82
2023/07/26 03:46:19;;;;;;;4.60;2.60;;;15.00;99.90;;;14.38;100.00;101117.47;3972901;29;20526;-82
2023/07/26 03:48:19;;;;;;;4.00;2.50;;;15.00;99.90;;;14.42;100.00;101128.56;3975123;29;20039;-82
2023/07/26 03:50:21;;;;;;;4.25;2.47;;;15.00;99.90;;;14.42;100.00;101122.44;3988038;29;20038;-82
2023/07/26 03:52:22;;;;;;;4.75;2.20;;;15.00;99.90;;;14.41;100.00;101121.59;3975882;29;20096;-82
2023/07/26 03:54:23;;;;;;;3.88;2.17;;;15.00;99.90;;;14.44;100.00;101131.03;3975256;29;20031;-82
2023/07/26 03:56:23;;;;;;;4.93;2.05;;;15.00;99.90;;;14.43;100.00;101127.53;3989991;29;20088;-82
2023/07/26 03:58:24;;;;;;;3.58;2.20;;;15.00;99.90;;;14.43;100.00;101127.53;3975991;29;20106;-82
2023/07/26 04:00:25;;;;;;;6.30;2.42;;;15.00;99.90;;;14.42;100.00;101119.78;3975543;29;20041;-82
2023/07/26 04:02:26;;;;;;;4.22;2.63;;;15.00;99.90;;;14.46;100.00;101124.56;3976271;29;20026;-82
2023/07/26 04:04:27;;;;;;;8.30;3.00;;;15.10;99.90;;;14.47;100.00;101120.91;3973080;29;20058;-82
2023/07/26 04:06:28;;;;;;;9.98;2.70;;;15.10;99.90;;;14.49;100.00;101118.91;3975739;29;20043;-81
2023/07/26 04:08:29;;;;;;;3.63;2.42;;;15.10;99.90;;;14.49;100.00;101118.91;3975969;29;20114;-81
2023/07/26 04:10:30;;;;;;;4.60;2.25;;;15.10;99.90;;;14.47;100.00;101114.75;3974669;29;20031;-81
2023/07/26 04:12:30;;;;;;;5.85;2.67;;;15.10;99.90;;;14.52;100.00;101117.72;3974709;29;20035;-81
2023/07/26 04:14:31;;;;;;;3.97;2.65;;;15.10;99.90;;;14.50;100.00;101112.59;3973738;29;20031;-81
2023/07/26 04:16:32;;;;;;;4.43;2.33;;;15.10;99.90;;;14.54;100.00;101118.41;3991590;29;20038;-81
2023/07/26 04:18:33;;;;;;;6.38;2.70;;;15.10;99.90;;;14.51;100.00;101116.09;3976195;29;20043;-81
2023/07/26 04:20:34;;;;;;;3.55;2.50;;;15.10;99.90;;;14.52;100.00;101120.38;3972632;29;20039;-81
2023/07/26 04:22:35;;;;;;;3.95;2.25;;;15.10;99.90;;;14.51;100.00;101116.91;3954926;30;20055;-81
2023/07/26 04:24:42;;;;;;;5.07;2.10;;;15.10;99.90;;;14.56;100.00;101119.03;3987899;29;20026;-81
2023/07/26 04:26:43;;;;;;;4.60;2.95;;;15.10;99.90;;;14.55;100.00;101120.03;3979993;29;20023;-81
2023/07/26 04:28:44;;;;;;;5.68;2.75;;;15.10;99.90;;;14.55;100.00;101117.38;3989717;29;20043;-82
2023/07/26 04:30:47;;;;;;;6.30;2.88;;;15.20;99.90;;;14.55;100.00;101117.38;3973473;29;20416;-82
2023/07/26 04:32:48;;;;;;;5.27;2.70;;;15.20;99.90;;;14.52;100.00;101115.91;3956810;30;20023;-82
2023/07/26 04:34:48;;;;;;;6.15;2.70;;;15.10;99.90;;;14.52;100.00;101113.25;3970859;29;20031;-82
2023/07/26 04:36:49;;;;;;;5.63;3.03;;;15.20;99.90;;;14.54;100.00;101110.44;3971429;29;20109;-82
2023/07/26 04:38:50;;;;;;;5.53;2.45;;;15.10;99.90;;;14.53;100.00;101114.91;3973115;29;20035;-82
2023/07/26 04:40:51;;;;;;;6.30;2.72;;;15.10;99.90;;;14.53;100.00;101111.41;3979730;29;20065;-82
2023/07/26 04:42:52;;;;;;;6.07;2.67;;;15.10;99.90;;;14.54;100.00;101119.22;3992141;29;20030;-82
2023/07/26 04:44:53;;;;;;;3.08;2.08;;;15.10;99.90;;;14.55;100.00;101106.75;3972526;29;20031;-82
2023/07/26 04:46:54;;;;;;;3.53;2.28;;;15.10;99.90;;;14.58;100.00;101122.34;3975348;29;20492;-82
2023/07/26 04:48:54;;;;;;;4.82;2.90;;;15.10;99.90;;;14.62;100.00;101123.66;3991743;29;20034;-82
2023/07/26 04:50:55;;;;;;;3.70;2.47;;;15.20;99.90;;;14.62;100.00;101118.34;3991118;29;20034;-82
2023/07/26 04:52:56;;;;;;;4.88;2.55;;;15.20;99.90;;;14.63;100.00;101115.53;3986796;29;20030;-82
2023/07/26 04:54:57;;;;;;;4.22;2.35;;;15.20;99.90;;;14.64;100.00;101127.78;3989605;29;20392;-83
2023/07/26 04:56:58;;;;;;;5.82;2.97;;;15.20;99.90;;;14.65;100.00;101118.84;3991034;29;20082;-81
2023/07/26 04:58:59;;;;;;;4.72;2.15;;;15.20;99.90;;;14.69;100.00;101124.63;3975310;29;20027;-82
2023/07/26 05:01:00;;;;;;;6.53;2.35;;;15.20;99.90;;;14.68;100.00;101120.31;3989911;29;20019;-81
2023/07/26 05:03:00;;;;;;;4.15;2.40;;;15.30;99.90;;;14.69;100.00;101125.47;3988507;29;20039;-81
2023/07/26 05:05:01;;;;;;;3.65;2.30;;;15.30;99.90;;;14.74;100.00;101124.94;3989823;29;20030;-82
2023/07/26 05:07:03;;;;;;;7.57;3.03;;;15.30;99.90;;;14.74;100.00;101114.31;3970515;29;20084;-82
2023/07/26 05:09:05;;;;;;;6.90;2.38;;;15.30;99.90;;;14.77;100.00;101124.59;3985452;29;20084;-82
2023/07/26 05:11:05;;;;;;;5.30;2.28;;;15.30;99.90;;;14.80;100.00;101121.59;3986528;29;20030;-82
2023/07/26 05:13:06;;;;;;;4.50;2.22;;;15.40;99.90;;;14.82;100.00;101116.91;3989598;29;20084;-82
2023/07/26 05:15:08;;;;;;;5.10;2.67;;;15.40;99.90;;;14.82;100.00;101112.44;3979483;29;20034;-82
2023/07/26 05:17:09;;;;;;;5.00;2.45;;;15.40;99.90;;;14.90;100.00;101117.69;3974299;29;20377;-82
2023/07/26 05:19:10;;;;;;;5.35;2.95;;;15.40;99.90;;;14.93;100.00;101112.03;3971998;29;20023;-82
2023/07/26 05:21:10;;;;;;;4.05;2.53;;;15.50;99.90;;;15.03;100.00;101109.16;3988799;29;20038;-82
2023/07/26 05:23:11;;;;;;;2.75;2.45;;;15.60;99.90;;;15.11;100.00;101113.59;3968648;29;20077;-82
2023/07/26 05:25:12;;;;;;;4.28;2.45;;;15.60;99.90;;;15.21;100.00;101125.66;3990904;29;20037;-82
2023/07/26 05:27:13;;;;;;;6.53;2.38;;;15.70;99.90;;;15.28;100.00;101118.63;3989415;29;20026;-82
2023/07/26 05:29:14;;;;;;;7.93;3.30;;;15.80;99.90;;;15.38;100.00;101116.53;3990016;29;20034;-82
2023/07/26 05:31:15;;;;;;;3.83;2.17;;;15.90;99.90;;;15.49;100.00;101125.97;3971810;29;20092;-82
2023/07/26 05:33:16;;;;;;;7.72;2.78;;;16.00;99.90;;;15.56;100.00;101120.78;3974890;29;20488;-82
2023/07/26 05:35:17;;;;;;;7.72;3.60;;;16.00;99.90;;;15.62;100.00;101112.88;3972319;29;20477;-82
2023/07/26 05:37:18;;;;;;;11.23;3.65;;;16.10;99.90;;;15.66;100.00;101113.34;3991436;29;20407;-82
2023/07/26 05:39:19;;;;;;;10.52;3.20;;;16.20;99.90;;;15.66;100.00;101094.75;3990493;29;20031;-82
2023/07/26 05:41:19;;;;;;;7.18;3.08;;;16.20;99.90;;;15.79;100.00;101108.25;3988560;29;20030;-82
2023/07/26 05:43:20;;;;;;;6.97;3.22;;;16.30;99.90;;;15.85;100.00;101102.22;3988763;29;20403;-82
2023/07/26 05:45:21;;;;;;;5.15;2.40;;;16.40;99.90;;;15.94;100.00;101112.59;3990175;29;20019;-82
2023/07/26 05:47:22;;;;;;;3.65;1.98;;;16.40;99.90;;;15.97;100.00;101114.06;3991378;29;20019;-82
2023/07/26 05:49:23;;;;;;;7.35;2.78;;;16.40;99.90;;;16.03;100.00;101110.69;3973525;29;20039;-82
2023/07/26 05:51:24;;;;;;;2.97;2.33;;;16.50;99.90;;;16.10;100.00;101106.25;3990971;29;20445;-82
2023/07/26 05:53:25;;;;;;;5.60;2.58;;;16.60;99.90;;;16.16;100.00;101105.53;3988486;29;20047;-82
2023/07/26 05:55:25;;;;;;;7.35;2.88;;;16.60;99.90;;;16.21;100.00;101110.31;3991503;29;20113;-82
2023/07/26 05:57:26;;;;;;;6.13;2.67;;;16.70;99.90;;;16.24;100.00;101109.97;3991501;29;20054;-83
2023/07/26 05:59:27;;;;;;;6.40;2.95;;;16.70;99.90;;;16.25;100.00;101107.09;3988230;29;20054;-82
2023/07/26 06:01:28;;;;;;;6.28;2.40;;;16.80;99.90;;;16.37;100.00;101107.47;3974545;29;20043;-82
2023/07/26 06:03:29;;;;;;;4.22;1.77;;;16.80;99.90;;;16.51;100.00;101114.63;3990072;29;20407;-82
2023/07/26 06:05:30;;;;;;;8.45;2.78;;;16.90;99.90;;;16.59;100.00;101107.38;3988809;29;20031;-82
2023/07/26 06:07:31;;;;;;;6.30;2.80;;;17.00;99.90;;;16.71;100.00;101109.56;3990009;29;20034;-83
2023/07/26 06:09:33;;;;;;;8.98;3.13;;;17.10;99.90;;;16.82;100.00;101117.06;3970340;29;20095;-83
2023/07/26 06:11:34;;;;;;;5.50;2.17;;;17.20;99.90;;;16.92;100.00;101106.94;3971709;29;20031;-82
2023/07/26 06:13:35;;;;;;;9.18;2.22;;;17.30;99.90;;;16.98;100.00;101100.88;3977070;29;20127;-84
2023/07/26 06:15:36;;;;;;;6.93;2.22;;;17.40;99.90;;;17.06;100.00;101108.72;3962450;30;20046;-85
2023/07/26 06:17:38;;;;;;;6.72;2.90;;;17.50;99.90;;;17.10;100.00;101110.00;3992801;29;20576;-85
2023/07/26 06:19:38;;;;;;;7.13;2.05;;;17.60;99.90;;;17.16;100.00;101125.25;3976345;29;20399;-85
2023/07/26 06:21:39;;;;;;;7.68;2.63;;;17.60;99.90;;;17.30;100.00;101126.19;3989257;29;20050;-84
2023/07/26 06:23:40;;;;;;;6.05;1.88;;;17.70;99.90;;;17.41;100.00;101115.84;3989995;29;20542;-85
2023/07/26 06:25:41;;;;;;;4.97;2.30;;;17.80;99.90;;;17.58;100.00;101111.94;3976771;29;20126;-85
2023/07/26 06:27:42;;;;;;;5.90;2.58;;;17.90;99.90;;;17.66;100.00;101118.97;3972206;29;20057;-84
2023/07/26 06:29:43;;;;;;;6.57;1.88;;;18.00;99.90;;;17.75;100.00;101119.66;3977743;29;20380;-86
2023/07/26 06:31:44;;;;;;;6.15;2.72;;;18.10;99.90;;;17.83;100.00;101125.66;3989927;29;20019;-86
2023/07/26 06:33:45;;;;;;;4.47;2.45;;;18.20;99.90;;;17.89;100.00;101116.09;3992268;29;20054;-85
2023/07/26 06:35:45;;;;;;;4.85;1.90;;;18.30;99.90;;;18.05;100.00;101115.78;3977690;29;20519;-85
2023/07/26 06:37:46;;;;;;;7.82;2.17;;;18.40;99.90;;;18.14;100.00;101126.13;3993708;29;20034;-83
2023/07/26 06:39:47;;;;;;;7.05;2.35;;;18.50;99.90;;;18.24;100.00;101131.09;3991170;29;20027;-82
2023/07/26 06:41:48;;;;;;;3.85;1.58;;;18.60;99.90;;;18.29;100.00;101122.50;3992597;29;20038;-82
2023/07/26 06:43:49;;;;;;;4.57;2.22;;;18.70;99.90;;;18.34;100.00;101118.19;3991758;29;20035;-81
2023/07/26 06:45:52;;;;;;;5.38;1.73;;;18.80;99.90;;;18.32;100.00;101114.91;3981389;29;20084;-82
2023/07/26 06:47:54;;;;;;;5.55;2.05;;;18.80;99.90;;;18.35;100.00;101113.69;3976693;29;20038;-82
2023/07/26 06:49:55;;;;;;;6.35;2.55;;;18.80;99.90;;;18.43;100.00;101121.56;3974897;29;20144;-83
2023/07/26 06:51:56;;;;;;;5.18;2.25;;;18.90;99.90;;;18.54;100.00;101123.69;3977371;29;20070;-84
2023/07/26 06:53:56;;;;;;;4.60;2.13;;;19.00;99.90;;;18.57;100.00;101118.78;3990309;29;20030;-82
2023/07/26 06:55:58;;;;;;;1.85;1.25;;;19.00;99.90;;;18.67;100.00;101113.03;3993497;29;20034;-82
2023/07/26 06:57:59;;;;;;;4.63;2.42;;;19.00;99.90;;;18.68;100.00;101107.53;3972933;29;20461;-85
2023/07/26 07:00:00;;;;;;;2.28;1.20;;;19.10;99.90;;;18.89;100.00;101119.09;3976682;29;20106;-81
2023/07/26 07:02:01;;;;;;;7.07;2.35;;;19.20;99.90;;;18.95;100.00;101119.13;3988670;29;20022;-83
2023/07/26 07:04:03;;;;;;;4.55;2.03;;;19.20;99.90;;;19.01;100.00;101125.50;3991768;29;20030;-83
2023/07/26 07:06:03;;;;;;;5.20;1.52;;;19.20;99.90;;;19.03;100.00;101120.78;3991725;29;20450;-82
2023/07/26 07:08:04;;;;;;;8.10;2.33;;;19.30;99.90;;;19.13;100.00;101121.22;3975205;29;20047;-81
2023/07/26 07:10:06;;;;;;;5.20;1.75;;;19.40;99.90;;;19.18;100.00;101108.06;3987769;29;20057;-80
2023/07/26 07:12:09;;;;;;;7.55;2.78;;;19.50;99.90;;;19.42;100.00;101120.06;3991499;29;20519;-80
2023/07/26 07:14:10;;;;;;;5.82;1.75;;;19.60;99.90;;;19.56;100.00;101117.19;3973475;29;20031;-80
2023/07/26 07:16:10;;;;;;;5.43;1.52;;;19.80;99.90;;;19.66;100.00;101116.78;3991424;29;20031;-81
2023/07/26 07:18:11;;;;;;;5.15;2.03;;;19.90;99.90;;;19.79;100.00;101114.94;3992359;29;20026;-81
2023/07/26 07:20:12;;;;;;;8.23;3.03;;;20.00;99.90;;;19.92;100.00;101113.28;3975632;29;20121;-79
2023/07/26 07:22:13;;;;;;;8.00;1.98;;;20.10;99.90;;;19.88;100.00;101121.72;3986584;29;20476;-80
2023/07/26 07:24:14;;;;;;;5.78;1.85;;;20.10;99.90;;;19.73;100.00;101123.78;3988753;29;20027;-79
2023/07/26 07:26:16;;;;;;;9.80;2.35;;;20.10;99.90;;;19.66;100.00;101125.63;3987263;29;20030;-79
2023/07/26 07:28:16;;;;;;;6.45;1.90;;;20.10;99.90;;;19.66;100.00;101116.78;3992843;29;20050;-79
2023/07/26 07:30:18;;;;;;;5.13;1.75;;;20.10;99.90;;;19.60;100.00;101121.09;3991371;29;20026;-79
2023/07/26 07:32:19;;;;;;;6.97;2.30;;;20.00;99.90;;;19.58;100.00;101115.13;3958599;30;20039;-79
2023/07/26 07:34:20;;;;;;;3.83;2.45;;;20.00;99.90;;;19.57;100.00;101104.63;3995293;29;20513;-79
2023/07/26 07:36:20;;;;;;;3.95;1.67;;;20.10;99.90;;;19.73;100.00;101120.28;3973775;29;20038;-79
2023/07/26 07:38:21;;;;;;;4.85;1.92;;;20.20;99.90;;;19.91;100.00;101115.13;3988961;29;20026;-79
2023/07/26 07:40:23;;;;;;;5.80;1.95;;;20.30;99.90;;;20.09;100.00;101127.88;3974165;29;20512;-79
2023/07/26 07:42:24;;;;;;;5.90;2.30;;;20.40;99.90;;;20.18;100.00;101118.59;3990581;29;20105;-79
2023/07/26 07:44:30;;;;;;;5.30;1.70;;;20.60;99.90;;;20.29;100.00;101124.16;3978655;29;20035;-79
2023/07/26 07:46:30;;;;;;;5.95;1.70;;;20.60;99.90;;;20.34;100.00;101121.66;3989385;29;20031;-78
2023/07/26 07:48:33;;;;;;;5.93;2.22;;;20.60;99.90;;;20.24;100.00;101121.25;3988279;29;20042;-79
2023/07/26 07:50:35;;;;;;;5.17;2.07;;;20.70;99.90;;;20.02;100.00;101127.88;3975811;29;20039;-78
2023/07/26 07:52:36;;;;;;;4.85;2.60;;;20.60;99.90;;;19.86;100.00;101125.66;3989757;29;20041;-78
2023/07/26 07:54:36;;;;;;;3.97;1.60;;;20.50;99.90;;;19.82;100.00;101135.94;3979849;29;20027;-78
2023/07/26 07:56:38;;;;;;;7.57;2.10;;;20.40;99.90;;;19.75;100.00;101129.75;3991729;29;20403;-78
2023/07/26 07:58:39;;;;;;;5.57;1.98;;;20.40;99.90;;;19.85;100.00;101127.50;3976392;29;20153;-78
2023/07/26 08:00:40;;;;;;;3.40;1.52;;;20.40;99.90;;;19.98;100.00;101133.88;3976485;29;20019;-79
2023/07/26 08:02:41;;;;;;;5.10;2.33;;;20.40;99.90;;;20.09;100.00;101128.69;3975160;29;20043;-79
2023/07/26 08:04:42;;;;;;;6.97;2.00;;;20.50;99.90;;;20.12;100.00;101130.97;3985968;29;20030;-79
2023/07/26 08:06:43;;;;;;;3.75;1.52;;;20.60;99.90;;;20.18;100.00;101124.78;3991341;29;20034;-79
2023/07/26 08:08:44;;;;;;;2.83;1.45;;;20.60;99.90;;;20.34;100.00;101118.13;3996360;29;20479;-79
2023/07/26 08:10:45;;;;;;;5.07;1.70;;;20.70;99.90;;;20.51;100.00;101116.66;3986973;29;20065;-79
2023/07/26 08:12:46;;;;;;;3.72;1.45;;;20.90;99.90;;;20.68;100.00;101114.31;3993942;29;20018;-79
2023/07/26 08:14:50;;;;;;;4.25;1.60;;;21.00;99.90;;;20.83;100.00;101121.06;3993164;29;20396;-79
2023/07/26 08:16:50;;;;;;;2.85;1.35;;;21.20;99.90;;;20.93;100.00;101116.06;3987656;29;20027;-79
2023/07/26 08:18:51;;;;;;;3.97;1.42;;;21.30;99.90;;;21.02;100.00;101118.50;3977686;29;20065;-79